Wednesday, October 18, 2017, 5:14 PM CDT
Back to Local

KAAO, Wichita Jabara Airport

Location: Wichita, KS, United States Lat: 37.75
Local Time: 5:14 PM CDT (22:14 GMT) Lon: -97.217
Time Zone: US/Central Elev: 1420 ft

Show me the last for .
Show Decoded

2017-10-18 16:54 METAR KAAO 182154Z AUTO 18012KT 10SM CLR 24/09 A2998 RMK AO2 SLP147 T02390089 =
2017-10-18 15:54 METAR KAAO 182054Z AUTO 19009KT 10SM CLR 25/09 A2999 RMK AO2 SLP149 T02500094
                 56006 =
2017-10-18 14:54 METAR KAAO 181954Z AUTO 20011G19KT 10SM CLR 24/09 A2999 RMK AO2 SLP150 T02440094
                 =
2017-10-18 13:54 METAR KAAO 181854Z AUTO 19014G21KT 10SM CLR 22/09 A2999 RMK AO2 SLP150 T02220089
                 =
2017-10-18 12:54 METAR KAAO 181754Z AUTO 18010KT 10SM CLR 21/09 A3001 RMK AO2 SLP159 T02060094
                 10211 20100 57009 =
2017-10-18 11:54 METAR KAAO 181654Z AUTO 19012KT 10SM CLR 19/08 A3002 RMK AO2 SLP162 T01940083 =
2017-10-18 10:54 METAR KAAO 181554Z AUTO 19017G22KT 10SM CLR 17/08 A3003 RMK AO2 SLP164 T01670078
                 =
2017-10-18 09:54 METAR KAAO 181454Z AUTO 20015G22KT 10SM CLR 16/07 A3004 RMK AO2 SLP169 T01560072
                 53010 =
2017-10-18 08:54 METAR KAAO 181354Z AUTO 17009KT 10SM CLR 12/07 A3003 RMK AO2 SLP168 T01220072 =
2017-10-18 07:54 METAR KAAO 181254Z AUTO 17008KT 10SM CLR 10/07 A3001 RMK AO2 SLP161 T01000067 =
2017-10-18 06:54 METAR KAAO 181154Z AUTO 17009KT 10SM CLR 11/07 A3001 RMK AO2 SLP159 T01060067
                 10117 20100 56006 =
2017-10-18 05:54 METAR KAAO 181054Z AUTO 17011KT 10SM CLR 11/07 A3001 RMK AO2 SLP158 T01060072 =
2017-10-18 04:54 METAR KAAO 180954Z AUTO 17011KT 10SM CLR 11/07 A3001 RMK AO2 SLP156 T01110072 =
2017-10-18 03:54 METAR KAAO 180854Z AUTO 17011KT 10SM CLR 11/08 A3003 RMK AO2 SLP162 T01110078
                 58014 =
2017-10-18 02:54 METAR KAAO 180754Z AUTO 17008KT 10SM CLR 11/08 A3005 RMK AO2 SLP171 T01110078 =
2017-10-18 01:54 METAR KAAO 180654Z AUTO 17008KT 10SM CLR 11/08 A3006 RMK AO2 SLP174 T01110083 =
2017-10-18 00:54 METAR KAAO 180554Z AUTO 16006KT 10SM CLR 11/08 A3007 RMK AO2 SLP179 T01060083
                 10178 20106 402280078 58005 =
2017-10-17 23:54 METAR KAAO 180454Z AUTO 17009KT 10SM CLR 12/08 A3008 RMK AO2 SLP183 T01220083 =
2017-10-17 22:54 METAR KAAO 180354Z AUTO 17010KT 10SM CLR 13/08 A3009 RMK AO2 SLP186 T01330078 =
2017-10-17 21:54 METAR KAAO 180254Z AUTO 17008KT 10SM CLR 13/08 A3008 RMK AO2 SLP185 T01330083
                 51008 =
2017-10-17 20:54 METAR KAAO 180154Z AUTO 17008KT 10SM CLR 14/08 A3008 RMK AO2 SLP185 T01390083 =
2017-10-17 19:54 METAR KAAO 180054Z AUTO 17007KT 10SM CLR 15/08 A3008 RMK AO2 SLP185 T01500078 =
2017-10-17 18:54 METAR KAAO 172354Z AUTO 18007KT 10SM CLR 18/07 A3006 RMK AO2 SLP178 T01780072
                 10228 20178 56007 =
2017-10-17 17:54 METAR KAAO 172254Z AUTO 19011G17KT 10SM CLR 21/07 A3006 RMK AO2 SLP177 T02110072
                 =

Support USWX by starting your Amazon purchase here.